ADDS METAR Data INFO
IDs: Format: Raw Decoded Include TAF

Data at: 0341 UTC 28 Jun 2017

KMHT 280253Z 21005KT 10SM BKN200 14/12 A2995 RMK AO2 SLP153 60014 T01390117 53013 $
KMHT 280153Z 20006KT 10SM BKN200 14/13 A2994 RMK AO2 SLP151 T01440128 $
KMHT 280053Z 05006KT 10SM FEW010 FEW030 SCT090 BKN180 16/13 A2991 RMK AO2 LTG DSNT E AND SE RAB15E51GRB18E30 TSE53 SLP141 OCNL LTGICCG DSNT E CB DSNT E MOV E P0014 T01560128 $
KMHT 280032Z 01006KT 10SM -TSRA SCT018CB BKN050 BKN090 BKN200 16/12 A2993 RMK AO2 LTG DSNT S RAB15GRB18E30 FRQ LTGICCG NE-SE TS NE-SE MOV NE P0014 T01610117 $
KMHT 280020Z 31008KT 8SM +TSGRRA SCT018CB BKN033 BKN050 BKN200 17/12 A2995 RMK AO2 LTG DSNT W-NE RAB15GRB18 FRQ LTGICCG OHD TS OHD MOV NE GR 1/4 P0006 T01670122 $
KMHT 280002Z 34014KT 10SM TS BKN018CB BKN035 BKN110 BKN200 18/11 A2991 RMK AO2 LTG DSNT ALQDS OCNL LTGICCG VC W-N DSNT SW TS VC W-N CB DSNT SW MOV NE T01780106 $
KMHT 272353Z 34011KT 10SM TS SCT018CB BKN035 BKN110 BKN200 19/11 A2991 RMK AO2 LTG DSNT ALQDS SLP140 TSB30 OCNL LTGICCG VC W-N TS VC W-N MOV NE 60002 T01890106 10233 20183 53009 $
KMHT 272333Z 15005KT 10SM TS FEW010 SCT045CB SCT110 BKN200 18/13 A2988 RMK AO2 LTG DSNT SW-N TSB30 OCNL LTGICCG VC W-N TS VC W-N MOV NE T01830133 $
KMHT 272253Z 17008KT 10SM FEW025 BKN110 BKN200 21/13 A2987 RMK AO2 LTG DSNT SE AND W AND NW SLP126 CB DSNT SE-S W-NW MOV NE T02060128 $
KMHT 272153Z 21007KT 10SM FEW035 SCT110 SCT200 21/13 A2987 RMK AO2 LTG DSNT N AND E SLP127 CB DSNT N SE-S W MOV NE T02060128 $
KMHT 272053Z 17010KT 10SM FEW030 SCT065 BKN110 BKN200 19/14 A2988 RMK AO2 LTG DSNT ALQDS RAE23 TSE23 SLP132 P0000 60002 T01890139 56009 $
KMHT 272027Z 18011KT 10SM FEW030 SCT070 BKN150 19/14 A2989 RMK AO2 LTG DSNT ALQDS RAE23 TSE23 CB DSNT SE-SW NW MOV NE P0000 T01890144 $
KMHT 271953Z COR 17014KT 10SM -TSRA SCT043CB BKN090 OVC150 21/13 A2988 RMK AO2 LTG DSNT ALQDS RAB1858E05B49 TSB03E21B51 SLP131 OCNL LTGICCG VC W-NW TS VC W-NW MOV NE P0002 T02060128 $
KMHT 271922Z 17010KT 10SM FEW042 SCT070 BKN100 BKN250 22/13 A2990 RMK AO2 LTG DSNT ALQDS RAB1858E05 TSB03E21 CB DSNT N SE-SW MOV NE P0001 T02170128
KMHT 271905Z 18012G25KT 10SM TS FEW055CB BKN090 BKN150 BKN250 22/14 A2989 RMK AO2 LTG DSNT ALQDS RAB1858E05 TSB03 OCNL LTGICCG VC N TS VC N MOV NE P0001 T02170144
KMHT 271853Z 17012G20KT 10SM FEW055 BKN090 BKN150 BKN250 23/12 A2989 RMK AO2 LTG DSNT N AND SE AND S SLP133 CB DSNT N SE-S MOV NE T02280117
KMHT 271753Z 24005KT 10SM SCT070 BKN110 BKN150 BKN250 23/11 A2991 RMK AO2 LTG DSNT W RAB00E11 SLP140 CB DSNT W MOV NE P0000 60000 T02330111 10233 20156 58027
KMHT 271653Z 20006KT 10SM SCT080 BKN120 BKN200 22/12 A2994 RMK AO2 SLP151 T02220117
KMHT 271553Z VRB03KT 10SM BKN080 BKN200 21/12 A2996 RMK AO2 SLP158 T02110117
KMHT 271453Z 28004KT 10SM FEW060 BKN080 BKN200 20/12 A2999 RMK AO2 SLP167 T02000117 50000
KMHT 271353Z 20004KT 10SM SCT070 BKN085 BKN200 18/13 A3000 RMK AO2 SLP171 T01830128
KMHT 271253Z 00000KT 10SM BKN110 OVC200 17/12 A3000 RMK AO2 SLP170 T01720122
KMHT 271153Z 23003KT 10SM BKN120 BKN200 16/12 A2999 RMK AO2 SLP167 70003 T01560122 10161 20139 53003
KMHT 271053Z 00000KT 10SM FEW020 BKN110 BKN200 14/12 A2998 RMK AO2 SLP164 T01440122
KMHT 270953Z 16003KT 10SM FEW075 BKN120 BKN200 14/12 A2998 RMK AO2 SLP163 T01390117
KMHT 270853Z 17003KT 10SM FEW065 SCT075 BKN200 14/12 A2998 RMK AO2 SLP164 T01390117 51005
KMHT 270753Z 17004KT 10SM FEW065 SCT075 14/12 A2998 RMK AO2 SLP162 T01390122
KMHT 270653Z 19003KT 10SM BKN060 BKN075 14/13 A2998 RMK AO2 SLP165 T01440128
KMHT 270553Z 15005KT 10SM BKN070 BKN085 BKN110 15/13 A2997 RMK AO2 SLP159 60003 T01500128 10206 20150 56008
KMHT 270453Z 00000KT 10SM BKN070 BKN085 16/13 A2998 RMK AO2 SLP164 T01560128 402500150
KMHT 270353Z 00000KT 10SM BKN080 BKN095 OVC110 16/13 A2997 RMK AO2 RAE32 SLP160 P0002 T01610128
KMHT 270253Z VRB04KT 9SM -RA OVC080 17/12 A2999 RMK AO2 RAB14 SLP165 P0000 60001 T01720117 51014
KMHT 270153Z 32008KT 10SM BKN090 18/12 A2999 RMK AO2 RAE17 SLP165 P0001 T01780117
KMHT 270053Z 22008KT 10SM -RA BKN085 BKN110 19/13 A2996 RMK AO2 RAB47 SLP157 P0000 T01890128
KMHT 262353Z 16007KT 10SM FEW060 BKN090 21/12 A2995 RMK AO2 RAB13E43 SLP152 P0000 60000 T02060122 10250 20200 53009
KMHT 262253Z 29004KT 10SM FEW065 BKN090 23/09 A2993 RMK AO2 RAB35E45 SLP145 P0000 T02330089
KMHT 262153Z VRB03KT 10SM FEW070 BKN110 23/08 A2993 RMK AO2 SLP146 T02330083
KMHT 262053Z 29007KT 10SM SCT070 BKN100 23/08 A2992 RMK AO2 SLP143 T02330078 58008
KMHT 261953Z VRB05KT 10SM FEW070 SCT100 25/08 A2993 RMK AO2 SLP145 T02500083
KMHT 261853Z 24008G15KT 10SM SCT065 BKN100 24/07 A2994 RMK AO2 SLP148 T02390072
KMHT 261753Z VRB06G14KT 10SM SCT060 BKN100 24/07 A2994 RMK AO2 SLP150 T02390067 10244 20189 58007
KMHT 261653Z 26007KT 10SM BKN080 23/07 A2995 RMK AO2 SLP153 T02330067
KMHT 261553Z 29008G17KT 250V360 10SM SCT060 23/07 A2996 RMK AO2 SLP154 T02280067


Page loaded:  03:41 UTC  |   08:41 PM Pacific  |   09:41 PM Mountain  |   10:41 PM Central  |   11:41 PM Eastern

 

ADVISORIES

FORECASTS

FORECASTS

OBSERVATIONS

USER TOOLS

ABOUT US